Home > Products > Valid Products > TAF

000
FTUS42 KTBW 282328
TAFSRQ
TAF
KSRQ 282328Z 2900/2924 29008KT P6SM FEW040 SCT250
     FM290200 VRB03KT P6SM FEW250
     FM291500 21007KT P6SM FEW040 SCT250
     FM292000 28010KT P6SM SCT050 SCT250=



000
FTUS42 KTBW 282328
TAFRSW
TAF
KRSW 282328Z 2900/2924 28008KT P6SM FEW040 SCT250
     FM290200 VRB03KT P6SM FEW250
     FM291400 15005KT P6SM FEW040 SCT250
     FM291900 26010KT P6SM SCT050 SCT250=



000
FTUS42 KTBW 282328
TAFTPA
TAF
KTPA 282328Z 2900/2924 29008KT P6SM FEW040 SCT250
     FM290200 VRB03KT P6SM FEW250
     FM291500 21007KT P6SM FEW040 SCT250
     FM291900 28008KT P6SM SCT050 SCT250=



000
FTUS42 KTBW 282328
TAFPIE
TAF
KPIE 282328Z 2900/2924 29008KT P6SM FEW040 SCT250
     FM290200 VRB04KT P6SM FEW250
     FM291500 15007KT P6SM FEW040 SCT250
     FM291800 28010KT P6SM SCT050 SCT250=



000
FTUS42 KTBW 282328
TAFFMY
TAF
KFMY 282328Z 2900/2924 28008KT P6SM FEW040 SCT250
     FM290200 VRB03KT P6SM FEW250
     FM291400 15005KT P6SM FEW040 SCT250
     FM291900 26010KT P6SM SCT050 SCT250=



000
FTUS42 KTBW 282050 AAA
TAFTPA
TAF AMD
KTPA 282050Z 2820/2918 28008KT P6SM FEW040 SCT250
     FM290200 VRB03KT P6SM FEW250
     FM291500 21008KT P6SM FEW040 SCT250=



000
FTUS42 KTBW 281735
TAFSRQ
TAF
KSRQ 281735Z 2818/2918 22010KT P6SM FEW035
     FM282000 26010KT P6SM FEW250
     FM290200 VRB03KT P6SM FEW050 SCT250=



000
FTUS42 KTBW 281735
TAFPIE
TAF
KPIE 281735Z 2818/2918 18007KT P6SM FEW035
     FM282100 26009KT P6SM FEW040 SCT250
     FM290200 VRB04KT P6SM FEW050 SCT250=



000
FTUS42 KTBW 281735
TAFRSW
TAF
KRSW 281735Z 2818/2918 16005KT P6SM SCT050
     FM282000 25009KT P6SM SCT050 SCT250
     FM290200 VRB03KT P6SM FEW050 SCT250=



000
FTUS42 KTBW 281735
TAFFMY
TAF
KFMY 281735Z 2818/2918 16005KT P6SM SCT050
     FM282000 25009KT P6SM SCT050 SCT250
     FM290200 VRB03KT P6SM FEW050 SCT250=



000
FTUS42 KTBW 281735
TAFTPA
TAF
KTPA 281735Z 2818/2918 19008KT P6SM SCT035
     FM282100 28008KT P6SM SCT040 SCT250
     FM290200 VRB03KT P6SM FEW050 SCT250=



000
FTUS42 KTBW 281735
TAFSRQ
TAF
KSRQ 281735Z 2818/2918 22010KT P6SM FEW035
     FM282000 26010KT P6SM FEW250
     FM290200 VRB03KT P6SM FEW050 SCT250=



000
FTUS42 KTBW 281735
TAFFMY
TAF
KFMY 281735Z 2818/2918 16005KT P6SM SCT050
     FM282000 25009KT P6SM SCT050 SCT250
     FM290200 VRB03KT P6SM FEW050 SCT250=



000
FTUS42 KTBW 281735
TAFPIE
TAF
KPIE 281735Z 2818/2918 18007KT P6SM FEW035
     FM282100 26009KT P6SM FEW040 SCT250
     FM290200 VRB04KT P6SM FEW050 SCT250=



000
FTUS42 KTBW 281735
TAFRSW
TAF
KRSW 281735Z 2818/2918 16005KT P6SM SCT050
     FM282000 25009KT P6SM SCT050 SCT250
     FM290200 VRB03KT P6SM FEW050 SCT250=



000
FTUS42 KTBW 281735
TAFTPA
TAF
KTPA 281735Z 2818/2918 19008KT P6SM SCT035
     FM282100 28008KT P6SM SCT040 SCT250
     FM290200 VRB03KT P6SM FEW050 SCT250=



000
FTUS42 KTBW 281456 AAA
TAFTPA
TAF AMD
KTPA 281456Z 2815/2912 21008KT P6SM FEW030 FEW250
     FM281800 23009KT P6SM SCT040 SCT250
     FM282100 28008KT P6SM SCT040 SCT250
     FM290200 VRB03KT P6SM FEW050 SCT250=



000
FTUS42 KTBW 281136
TAFTPA
TAF
KTPA 281136Z 2812/2912 15004KT P6SM SCT250
     FM281400 16007KT P6SM SCT030 SCT250
     FM281800 23009KT P6SM SCT040 SCT250
     FM282100 28008KT P6SM SCT040 SCT250
     FM290200 VRB03KT P6SM FEW050 SCT250=



000
FTUS42 KTBW 281136
TAFSRQ
TAF
KSRQ 281136Z 2812/2912 13005KT P6SM SCT250
     FM281400 16008KT P6SM SCT030 SCT250
     FM281800 25010KT P6SM FEW040 SCT250
     FM290200 VRB03KT P6SM FEW050 SCT250=



000
FTUS42 KTBW 281136
TAFFMY
TAF
KFMY 281136Z 2812/2912 14004KT P6SM SCT250
     FM281400 16007KT P6SM SCT030 SCT250
     FM281800 25009KT P6SM SCT040 SCT250
     FM290200 VRB03KT P6SM FEW050 SCT250=



000
FTUS42 KTBW 281136
TAFRSW
TAF
KRSW 281136Z 2812/2912 13004KT P6SM SCT250
     FM281400 16007KT P6SM SCT030 SCT250
     FM281900 24009KT P6SM SCT040 SCT250
     FM290200 VRB03KT P6SM FEW050 SCT250=



000
FTUS42 KTBW 281136
TAFPIE
TAF
KPIE 281136Z 2812/2912 15004KT P6SM SCT250
     FM281400 16007KT P6SM FEW030 SCT250
     FM281700 23008KT P6SM FEW040 SCT250
     FM282000 26009KT P6SM FEW040 SCT250
     FM290200 VRB04KT P6SM FEW050 SCT250=



000
FTUS42 KTBW 280903 AAA
TAFTPA
TAF AMD
KTPA 280903Z 2809/2906 VRB04KT P6SM FEW015 BKN250
     FM281400 22007KT P6SM FEW030 SCT250
     FM281800 26009KT P6SM SCT040 BKN250
     FM290200 VRB03KT P6SM FEW050 SCT250=



000
FTUS42 KTBW 280903 AAA
TAFTPA
TAF AMD
KTPA 280903Z 2809/2906 VRB04KT P6SM FEW015 BKN250
     FM281400 22007KT P6SM FEW030 SCT250
     FM281800 26009KT P6SM SCT040 BKN250
     FM290200 VRB03KT P6SM FEW050 SCT250=



000
FTUS42 KTBW 280648 AAA
TAFRSW
TAF AMD
KRSW 280648Z 2807/2906 VRB03KT P6SM VCSH BKN035 BKN250
      TEMPO 2807/2808 BKN020
     FM281400 15006KT P6SM FEW030 SCT250
     FM281900 25008KT P6SM FEW040 SCT250
     FM290200 VRB03KT P6SM FEW050 SCT250=



000
FTUS42 KTBW 280647 AAA
TAFFMY
TAF AMD
KFMY 280647Z 2807/2906 VRB03KT P6SM BKN040 BKN250
      TEMPO 2807/2808 -RA BKN025
     FM281400 15006KT P6SM FEW030 SCT250
     FM281800 25009KT P6SM FEW040 SCT250
     FM290200 VRB03KT P6SM FEW050 SCT250=



000
FTUS42 KTBW 280538
TAFSRQ
TAF
KSRQ 280538Z 2806/2906 VRB03KT P6SM BKN060 BKN250
     FM281400 20007KT P6SM FEW030 FEW250
     FM281800 25010KT P6SM FEW040 SCT250
     FM290200 VRB03KT P6SM FEW050 SCT250=



000
FTUS42 KTBW 280538
TAFFMY
TAF
KFMY 280538Z 2806/2906 VRB03KT P6SM BKN040 BKN250
     FM281400 15006KT P6SM FEW030 SCT250
     FM281800 25009KT P6SM FEW040 SCT250
     FM290200 VRB03KT P6SM FEW050 SCT250=



000
FTUS42 KTBW 280538
TAFPIE
TAF
KPIE 280538Z 2806/2906 VRB03KT P6SM BKN090 BKN250
     FM281400 18007KT P6SM FEW030 SCT250
     FM281800 25009KT P6SM FEW040 SCT250
     FM290200 VRB04KT P6SM FEW050 SCT250=



000
FTUS42 KTBW 280538
TAFTPA
TAF
KTPA 280538Z 2806/2906 VRB03KT P6SM FEW090 BKN250
     FM281400 22007KT P6SM FEW030 SCT250
     FM281800 26009KT P6SM SCT040 BKN250
     FM290200 VRB03KT P6SM FEW050 SCT250=



000
FTUS42 KTBW 280538
TAFRSW
TAF
KRSW 280538Z 2806/2906 VRB03KT P6SM BKN040 BKN250
     FM281400 15006KT P6SM FEW030 SCT250
     FM281900 25008KT P6SM FEW040 SCT250
     FM290200 VRB03KT P6SM FEW050 SCT250=



000
FTUS42 KTBW 280256 AAA
TAFTPA
TAF AMD
KTPA 280256Z 2803/2824 VRB04KT P6SM BKN250
     FM281400 19006KT P6SM FEW250
     FM281700 23008KT P6SM FEW040 SCT250
     FM282100 27008KT P6SM SCT050 SCT250=



000
FTUS42 KTBW 272328
TAFTPA
TAF
KTPA 272328Z 2800/2824 26007KT P6SM FEW050 SCT250
     FM280200 VRB03KT P6SM FEW250
     FM281400 19006KT P6SM FEW250
     FM281700 23008KT P6SM FEW040 SCT250
     FM282100 27008KT P6SM SCT050 SCT250=



000
FTUS42 KTBW 272328
TAFPIE
TAF
KPIE 272328Z 2800/2824 25007KT P6SM FEW050 SCT250
     FM280200 VRB03KT P6SM FEW250
     FM281400 18006KT P6SM FEW250
     FM281700 22008KT P6SM FEW040 SCT250
     FM282100 27008KT P6SM SCT050 SCT250=



000
FTUS42 KTBW 272328
TAFFMY
TAF
KFMY 272328Z 2800/2824 23007KT P6SM FEW050 SCT250
     FM280200 VRB03KT P6SM FEW250
     FM281400 17006KT P6SM FEW250
     FM281700 22008KT P6SM FEW040 SCT250
     FM282100 26008KT P6SM SCT050 SCT250=



000
FTUS42 KTBW 272328
TAFSRQ
TAF
KSRQ 272328Z 2800/2824 26007KT P6SM FEW050 SCT250
     FM280200 VRB03KT P6SM FEW250
     FM281400 16006KT P6SM FEW250
     FM281700 24008KT P6SM FEW040 SCT250
     FM282100 29008KT P6SM SCT050 SCT250=



000
FTUS42 KTBW 272328
TAFRSW
TAF
KRSW 272328Z 2800/2824 24007KT P6SM FEW050 SCT250
     FM280200 VRB03KT P6SM FEW250
     FM281400 17006KT P6SM FEW250
     FM281700 22008KT P6SM FEW040 SCT250
     FM282100 26008KT P6SM SCT050 SCT250=



000
FTUS42 KTBW 272117 AAA
TAFTPA
TAF AMD
KTPA 272117Z 2721/2818 26008KT P6SM SCT050 SCT250
     FM280200 VRB03KT P6SM FEW060 SCT250
     FM281400 20006KT P6SM FEW030 SCT250
     FM281700 23008KT P6SM SCT040 SCT250=



000
FTUS42 KTBW 271739
TAFSRQ
TAF
KSRQ 271739Z 2718/2818 23010KT P6SM SCT050
     FM280000 27006KT P6SM SCT060
     FM280300 11004KT P6SM FEW060
     FM281400 16007KT P6SM FEW030 SCT250
     FM281700 22009KT P6SM SCT040 SCT250=



000
FTUS42 KTBW 271739
TAFFMY
TAF
KFMY 271739Z 2718/2818 18007KT P6SM BKN060
     FM272000 23007KT P6SM BKN060
     FM280200 VRB03KT P6SM SCT050
     FM281400 14006KT P6SM FEW030 SCT250
     FM281700 17007KT P6SM SCT040 SCT250=



000
FTUS42 KTBW 271739
TAFRSW
TAF
KRSW 271739Z 2718/2818 18007KT P6SM BKN060
     FM272000 23007KT P6SM BKN060
     FM280200 VRB03KT P6SM SCT050
     FM281400 14006KT P6SM FEW030 SCT250
     FM281700 17007KT P6SM SCT040 SCT250=



000
FTUS42 KTBW 271739
TAFTPA
TAF
KTPA 271739Z 2718/2818 23008KT P6SM SCT050
     FM280000 26006KT P6SM SCT060
     FM280300 VRB03KT P6SM FEW060 SCT250
     FM281400 20006KT P6SM FEW030 SCT250
     FM281700 23008KT P6SM SCT040 SCT250=



000
FTUS42 KTBW 271739
TAFSRQ
TAF
KSRQ 271739Z 2718/2818 23010KT P6SM SCT050
     FM280000 27006KT P6SM SCT060
     FM280300 11004KT P6SM FEW060
     FM281400 16007KT P6SM FEW030 SCT250
     FM281700 22009KT P6SM SCT040 SCT250=



000
FTUS42 KTBW 271739
TAFPIE
TAF
KPIE 271739Z 2718/2818 22008KT P6SM SCT050
     FM280000 26006KT P6SM FEW060
     FM280300 VRB03KT P6SM FEW060 SCT250
     FM281400 17007KT P6SM FEW030 SCT250
     FM281700 20009KT P6SM SCT040 SCT250=



000
FTUS42 KTBW 271739
TAFRSW
TAF
KRSW 271739Z 2718/2818 18007KT P6SM BKN060
     FM272000 23007KT P6SM BKN060
     FM280200 VRB03KT P6SM SCT050
     FM281400 14006KT P6SM FEW030 SCT250
     FM281700 17007KT P6SM SCT040 SCT250=



000
FTUS42 KTBW 271739
TAFFMY
TAF
KFMY 271739Z 2718/2818 18007KT P6SM BKN060
     FM272000 23007KT P6SM BKN060
     FM280200 VRB03KT P6SM SCT050
     FM281400 14006KT P6SM FEW030 SCT250
     FM281700 17007KT P6SM SCT040 SCT250=



000
FTUS42 KTBW 271739
TAFTPA
TAF
KTPA 271739Z 2718/2818 23008KT P6SM SCT050
     FM280000 26006KT P6SM SCT060
     FM280300 VRB03KT P6SM FEW060 SCT250
     FM281400 20006KT P6SM FEW030 SCT250
     FM281700 23008KT P6SM SCT040 SCT250=



000
FTUS42 KTBW 271739
TAFPIE
TAF
KPIE 271739Z 2718/2818 22008KT P6SM SCT050
     FM280000 26006KT P6SM FEW060
     FM280300 VRB03KT P6SM FEW060 SCT250
     FM281400 17007KT P6SM FEW030 SCT250
     FM281700 20009KT P6SM SCT040 SCT250=



000
FTUS42 KTBW 271511 AAA
TAFTPA
TAF AMD
KTPA 271511Z 2715/2812 20007KT P6SM SCT030 SCT100
     FM271800 23008KT P6SM SCT050
     FM280000 26006KT P6SM SCT060
     FM280300 VRB03KT P6SM FEW060=



000
FTUS42 KTBW 271130
TAFTPA
TAF
KTPA 271130Z 2712/2812 15005KT P6SM SCT100
     FM271500 18007KT P6SM FEW035 SCT100
     FM271800 22008KT P6SM SCT050
     FM280000 26006KT P6SM SCT060
     FM280300 VRB03KT P6SM FEW060=



000
FTUS42 KTBW 271130
TAFPIE
TAF
KPIE 271130Z 2712/2812 14007KT P6SM SCT100
     FM271500 14009KT P6SM FEW035 SCT100
     FM271800 22008KT P6SM SCT050
     FM280000 26006KT P6SM SCT060
     FM280300 VRB03KT P6SM FEW060=



000
FTUS42 KTBW 271130
TAFRSW
TAF
KRSW 271130Z 2712/2812 12005KT P6SM BKN070
     FM271500 15007KT P6SM FEW035 SCT070
     FM271800 18007KT P6SM BKN060
     FM272100 23007KT P6SM BKN060
     FM280200 VRB03KT P6SM SCT050=



000
FTUS42 KTBW 271130
TAFFMY
TAF
KFMY 271130Z 2712/2812 12005KT P6SM BKN070
     FM271500 15007KT P6SM FEW035 SCT070
     FM271800 18007KT P6SM BKN060
     FM272100 23007KT P6SM BKN060
     FM280200 VRB03KT P6SM SCT050=



000
FTUS42 KTBW 271130
TAFSRQ
TAF
KSRQ 271130Z 2712/2812 12006KT P6SM SCT080
     FM271500 18008KT P6SM FEW035 SCT080
     FM271800 23010KT P6SM SCT050
     FM280000 27006KT P6SM SCT060
     FM280300 11004KT P6SM FEW060=



000
FTUS42 KTBW 271130
TAFRSW
TAF
KRSW 271130Z 2712/2812 12005KT P6SM BKN070
     FM271500 15007KT P6SM FEW035 SCT070
     FM271800 18007KT P6SM BKN060
     FM272100 23007KT P6SM BKN060
     FM280200 VRB03KT P6SM SCT050=



000
FTUS42 KTBW 271130
TAFFMY
TAF
KFMY 271130Z 2712/2812 12005KT P6SM BKN070
     FM271500 15007KT P6SM FEW035 SCT070
     FM271800 18007KT P6SM BKN060
     FM272100 23007KT P6SM BKN060
     FM280200 VRB03KT P6SM SCT050=



000
FTUS42 KTBW 271130
TAFPIE
TAF
KPIE 271130Z 2712/2812 14007KT P6SM SCT100
     FM271500 14009KT P6SM FEW035 SCT100
     FM271800 22008KT P6SM SCT050
     FM280000 26006KT P6SM SCT060
     FM280300 VRB03KT P6SM FEW060=



000
FTUS42 KTBW 271130
TAFTPA
TAF
KTPA 271130Z 2712/2812 15005KT P6SM SCT100
     FM271500 18007KT P6SM FEW035 SCT100
     FM271800 22008KT P6SM SCT050
     FM280000 26006KT P6SM SCT060
     FM280300 VRB03KT P6SM FEW060=



000
FTUS42 KTBW 271130
TAFSRQ
TAF
KSRQ 271130Z 2712/2812 12006KT P6SM SCT080
     FM271500 18008KT P6SM FEW035 SCT080
     FM271800 23010KT P6SM SCT050
     FM280000 27006KT P6SM SCT060
     FM280300 11004KT P6SM FEW060=



000
FTUS42 KTBW 270857 AAA
TAFTPA
TAF AMD
KTPA 270857Z 2709/2806 14004KT P6SM FEW060 SCT250
     FM271600 18007KT P6SM FEW060 SCT100
     FM272100 22008KT P6SM FEW050 SCT100
     FM280000 26006KT P6SM FEW070 SCT250
     FM280300 12004KT P6SM FEW070 SCT250=



000
FTUS42 KTBW 270539
TAFFMY
TAF
KFMY 270539Z 2706/2806 15005KT P6SM SCT025 BKN050
     FM271500 16008KT P6SM FEW060
     FM272000 20007KT P6SM SCT050 SCT250
     FM280200 15004KT P6SM SCT050=



000
FTUS42 KTBW 270539
TAFSRQ
TAF
KSRQ 270539Z 2706/2806 11004KT P6SM SCT050
     FM271500 16008KT P6SM FEW060 FEW090
     FM272000 24010G15KT P6SM SCT080
     FM280000 25006KT P6SM SCT250
     FM280200 15004KT P6SM FEW150 SCT250=



000
FTUS42 KTBW 270539
TAFRSW
TAF
KRSW 270539Z 2706/2806 VRB04KT P6SM FEW025 BKN050
     FM271500 16008KT P6SM FEW060
     FM272000 20007KT P6SM SCT050 SCT250
     FM280200 15004KT P6SM SCT050=



000
FTUS42 KTBW 270539
TAFPIE
TAF
KPIE 270539Z 2706/2806 13005KT P6SM FEW060 SCT250
     FM271400 18007KT P6SM SCT090
     FM272100 23010KT P6SM SCT090
     FM280200 VRB03KT P6SM FEW070 SCT250=



000
FTUS42 KTBW 270539
TAFTPA
TAF
KTPA 270539Z 2706/2806 11004KT P6SM FEW060 SCT250
     FM271600 18007KT P6SM FEW060 SCT100
     FM272100 22008KT P6SM FEW050 SCT100
     FM280000 26006KT P6SM FEW070 SCT250
     FM280300 12004KT P6SM FEW070 SCT250=



000
FTUS42 KTBW 270301 AAA
TAFTPA
TAF AMD
KTPA 270301Z 2703/2724 VRB03KT P6SM SCT060
     FM271400 16007KT P6SM SCT100
     FM271700 20008KT P6SM SCT040
     FM272200 24008KT P6SM FEW050=



000
FTUS42 KTBW 262322
TAFRSW
TAF
KRSW 262322Z 2700/2724 24008KT P6SM SCT060
     FM270200 12004KT P6SM SCT060
     FM271400 14007KT P6SM SKC
     FM271700 18007KT P6SM SCT040
     FM272000 21008KT P6SM SCT050=



000
FTUS42 KTBW 262322
TAFRSW
TAF
KRSW 262322Z 2700/2724 24008KT P6SM SCT060
     FM270200 12004KT P6SM SCT060
     FM271400 14007KT P6SM SKC
     FM271700 18007KT P6SM SCT040
     FM272000 21008KT P6SM SCT050=



000
FTUS42 KTBW 262322
TAFSRQ
TAF
KSRQ 262322Z 2700/2724 28006KT P6SM SKC
     FM270300 11005KT P6SM SCT050
     FM271400 15008KT P6SM SKC
     FM271800 23010KT P6SM SCT040=



000
FTUS42 KTBW 262322
TAFPIE
TAF
KPIE 262322Z 2700/2724 30007KT P6SM SKC
     FM270300 13004KT P6SM SKC
     FM271400 16008KT P6SM SKC
     FM271700 17008KT P6SM SCT040
     FM272200 24008KT P6SM FEW040=



000
FTUS42 KTBW 262322
TAFFMY
TAF
KFMY 262322Z 2700/2724 24008KT P6SM SCT060
     FM270200 12004KT P6SM SCT060
     FM271400 14007KT P6SM SKC
     FM271700 17008KT P6SM SCT040
     FM272000 21008KT P6SM SCT050=



000
FTUS42 KTBW 262322
TAFTPA
TAF
KTPA 262322Z 2700/2724 29008KT P6SM SCT060
     FM270200 VRB03KT P6SM SKC
     FM271400 16007KT P6SM SKC
     FM271700 20008KT P6SM SCT040
     FM272200 24008KT P6SM FEW050=



000
FTUS42 KTBW 262322
TAFSRQ
TAF
KSRQ 262322Z 2700/2724 28006KT P6SM SKC
     FM270300 11005KT P6SM SCT050
     FM271400 15008KT P6SM SKC
     FM271800 23010KT P6SM SCT040=



000
FTUS42 KTBW 262322
TAFTPA
TAF
KTPA 262322Z 2700/2724 29008KT P6SM SCT060
     FM270200 VRB03KT P6SM SKC
     FM271400 16007KT P6SM SKC
     FM271700 20008KT P6SM SCT040
     FM272200 24008KT P6SM FEW050=



000
FTUS42 KTBW 262322
TAFPIE
TAF
KPIE 262322Z 2700/2724 30007KT P6SM SKC
     FM270300 13004KT P6SM SKC
     FM271400 16008KT P6SM SKC
     FM271700 17008KT P6SM SCT040
     FM272200 24008KT P6SM FEW040=



000
FTUS42 KTBW 262322
TAFFMY
TAF
KFMY 262322Z 2700/2724 24008KT P6SM SCT060
     FM270200 12004KT P6SM SCT060
     FM271400 14007KT P6SM SKC
     FM271700 17008KT P6SM SCT040
     FM272000 21008KT P6SM SCT050=



000
FTUS42 KTBW 262111 AAA
TAFTPA
TAF AMD
KTPA 262111Z 2621/2718 27008KT P6SM SCT060
     FM270000 31006KT P6SM SCT060
     FM270300 VRB03KT P6SM FEW050
     FM271400 16007KT P6SM FEW030
     FM271700 20008KT P6SM SCT040=



000
FTUS42 KTBW 261738
TAFSRQ
TAF
KSRQ 261738Z 2618/2718 24010KT P6SM FEW050
     FM262100 27010KT P6SM FEW060
     FM270000 30007KT P6SM FEW060
     FM270300 11005KT P6SM SCT050
     FM271400 15008KT P6SM FEW030 SCT250
     FM271700 18009KT P6SM SCT040 SCT250=



000
FTUS42 KTBW 261738
TAFFMY
TAF
KFMY 261738Z 2618/2718 VRB05KT P6SM SCT050
     FM262100 22008KT P6SM BKN060
     FM270200 12005KT P6SM BKN060
     FM270800 VRB03KT P6SM SCT060
     FM271400 14007KT P6SM FEW030 SCT250
     FM271700 17007KT P6SM SCT040 SCT250=



000
FTUS42 KTBW 261738
TAFPIE
TAF
KPIE 261738Z 2618/2718 04006KT P6SM FEW050
     FM262000 30008KT P6SM FEW060
     FM270300 13005KT P6SM SCT050
     FM271400 16008KT P6SM FEW030 SCT250=



000
FTUS42 KTBW 261738
TAFRSW
TAF
KRSW 261738Z 2618/2718 VRB05KT P6SM SCT050
     FM262100 22007KT P6SM BKN060
     FM270200 12005KT P6SM BKN060
     FM270800 VRB03KT P6SM SCT060
     FM271400 14007KT P6SM FEW030 SCT250
     FM271700 15007KT P6SM SCT040 SCT250=



000
FTUS42 KTBW 261738
TAFTPA
TAF
KTPA 261738Z 2618/2718 24007KT P6SM SCT050
     FM262100 27008KT P6SM SCT060
     FM270000 31006KT P6SM SCT060
     FM270300 VRB03KT P6SM FEW050
     FM271400 16007KT P6SM FEW030 SCT250
     FM271700 20008KT P6SM SCT040 SCT250=



000
FTUS42 KTBW 261738
TAFRSW
TAF
KRSW 261738Z 2618/2718 VRB05KT P6SM SCT050
     FM262100 22007KT P6SM BKN060
     FM270200 12005KT P6SM BKN060
     FM270800 VRB03KT P6SM SCT060
     FM271400 14007KT P6SM FEW030 SCT250
     FM271700 15007KT P6SM SCT040 SCT250=



000
FTUS42 KTBW 261738
TAFFMY
TAF
KFMY 261738Z 2618/2718 VRB05KT P6SM SCT050
     FM262100 22008KT P6SM BKN060
     FM270200 12005KT P6SM BKN060
     FM270800 VRB03KT P6SM SCT060
     FM271400 14007KT P6SM FEW030 SCT250
     FM271700 17007KT P6SM SCT040 SCT250=



000
FTUS42 KTBW 261738
TAFSRQ
TAF
KSRQ 261738Z 2618/2718 24010KT P6SM FEW050
     FM262100 27010KT P6SM FEW060
     FM270000 30007KT P6SM FEW060
     FM270300 11005KT P6SM SCT050
     FM271400 15008KT P6SM FEW030 SCT250
     FM271700 18009KT P6SM SCT040 SCT250=



000
FTUS42 KTBW 261738
TAFTPA
TAF
KTPA 261738Z 2618/2718 24007KT P6SM SCT050
     FM262100 27008KT P6SM SCT060
     FM270000 31006KT P6SM SCT060
     FM270300 VRB03KT P6SM FEW050
     FM271400 16007KT P6SM FEW030 SCT250
     FM271700 20008KT P6SM SCT040 SCT250=



000
FTUS42 KTBW 261738
TAFPIE
TAF
KPIE 261738Z 2618/2718 04006KT P6SM FEW050
     FM262000 30008KT P6SM FEW060
     FM270300 13005KT P6SM SCT050
     FM271400 16008KT P6SM FEW030 SCT250=



000
FTUS42 KTBW 261516 AAA
TAFTPA
TAF AMD
KTPA 261516Z 2615/2712 15005KT P6SM FEW035 SCT080
     FM261700 23007KT P6SM BKN050
     FM262100 27008KT P6SM SCT060
     FM270000 31006KT P6SM SCT060
     FM270300 11004KT P6SM SCT050=



000
FTUS42 KTBW 261132
TAFRSW
TAF
KRSW 261132Z 2612/2712 09005KT P6SM SCT080
     FM261400 12009KT P6SM FEW030 SCT080
     FM261800 VRB06KT P6SM SCT050
     FM262100 22007KT P6SM BKN060
     FM270200 12005KT P6SM BKN060
     FM270800 VRB03KT P6SM SCT060=



000
FTUS42 KTBW 261132
TAFRSW
TAF
KRSW 261132Z 2612/2712 09005KT P6SM SCT080
     FM261400 12009KT P6SM FEW030 SCT080
     FM261800 VRB06KT P6SM SCT050
     FM262100 22007KT P6SM BKN060
     FM270200 12005KT P6SM BKN060
     FM270800 VRB03KT P6SM SCT060=



000
FTUS42 KTBW 261132
TAFFMY
TAF
KFMY 261132Z 2612/2712 09005KT P6SM SCT080
     FM261400 12009KT P6SM FEW030 SCT080
     FM261800 VRB06KT P6SM SCT050
     FM262100 22008KT P6SM BKN060
     FM270200 12005KT P6SM BKN060
     FM270800 VRB03KT P6SM SCT060=



000
FTUS42 KTBW 261132
TAFFMY
TAF
KFMY 261132Z 2612/2712 09005KT P6SM SCT080
     FM261400 12009KT P6SM FEW030 SCT080
     FM261800 VRB06KT P6SM SCT050
     FM262100 22008KT P6SM BKN060
     FM270200 12005KT P6SM BKN060
     FM270800 VRB03KT P6SM SCT060=



000
FTUS42 KTBW 261132
TAFSRQ
TAF
KSRQ 261132Z 2612/2712 11005KT P6SM SCT080
     FM261400 12008KT P6SM FEW030 SCT080
     FM261800 25009KT P6SM SCT050
     FM262100 27010KT P6SM SCT060
     FM270000 30007KT P6SM SCT060
     FM270300 11005KT P6SM SCT050=



000
FTUS42 KTBW 261132
TAFPIE
TAF
KPIE 261132Z 2612/2712 12006KT P6SM SCT080
     FM261500 11007KT P6SM FEW035 SCT080
     FM261700 VRB05KT P6SM SCT050
     FM262000 30008KT P6SM SCT060
     FM270300 11005KT P6SM SCT050=



000
FTUS42 KTBW 261132
TAFSRQ
TAF
KSRQ 261132Z 2612/2712 11005KT P6SM SCT080
     FM261400 12008KT P6SM FEW030 SCT080
     FM261800 25009KT P6SM SCT050
     FM262100 27010KT P6SM SCT060
     FM270000 30007KT P6SM SCT060
     FM270300 11005KT P6SM SCT050=



000
FTUS42 KTBW 261132
TAFTPA
TAF
KTPA 261132Z 2612/2712 13005KT P6SM SCT080
     FM261500 16007KT P6SM FEW035 SCT080
     FM261700 23007KT P6SM BKN050
     FM262100 27008KT P6SM SCT060
     FM270000 31006KT P6SM SCT060
     FM270300 11004KT P6SM SCT050=



000
FTUS42 KTBW 261132
TAFTPA
TAF
KTPA 261132Z 2612/2712 13005KT P6SM SCT080
     FM261500 16007KT P6SM FEW035 SCT080
     FM261700 23007KT P6SM BKN050
     FM262100 27008KT P6SM SCT060
     FM270000 31006KT P6SM SCT060
     FM270300 11004KT P6SM SCT050=



000
FTUS42 KTBW 261132
TAFPIE
TAF
KPIE 261132Z 2612/2712 12006KT P6SM SCT080
     FM261500 11007KT P6SM FEW035 SCT080
     FM261700 VRB05KT P6SM SCT050
     FM262000 30008KT P6SM SCT060
     FM270300 11005KT P6SM SCT050=



000
FTUS42 KTBW 260903 AAA
TAFTPA
TAF AMD
KTPA 260903Z 2609/2706 12006KT P6SM BKN050
     FM261600 16006KT P6SM SCT060 SCT150
     FM261900 24006KT P6SM SCT050 SCT150
     FM262300 VRB05KT P6SM SCT060
     FM270300 09005KT P6SM SCT050 SCT250=



000
FTUS42 KTBW 260903 AAA
TAFTPA
TAF AMD
KTPA 260903Z 2609/2706 12006KT P6SM BKN050
     FM261600 16006KT P6SM SCT060 SCT150
     FM261900 24006KT P6SM SCT050 SCT150
     FM262300 VRB05KT P6SM SCT060
     FM270300 09005KT P6SM SCT050 SCT250=



000
FTUS42 KTBW 260541
TAFPIE
TAF
KPIE 260541Z 2606/2706 12008KT P6SM SCT050 BKN100
     FM261300 12007KT P6SM FEW050 SCT150
     FM261900 30009KT P6SM FEW050 SCT200
     FM270100 VRB05KT P6SM SCT060
     FM270400 10005KT P6SM FEW045 SCT100=



000
FTUS42 KTBW 260541
TAFRSW
TAF
KRSW 260541Z 2606/2706 10004KT P6SM BKN035
     FM261300 10005KT P6SM FEW060 FEW150
     FM262000 19007KT P6SM SCT050
     FM270200 15004KT P6SM BKN050=



000
FTUS42 KTBW 260541
TAFSRQ
TAF
KSRQ 260541Z 2606/2706 11008KT P6SM BKN040
     FM261400 12007KT P6SM FEW050 SCT200
     FM261800 22010KT P6SM FEW050 SCT150
     FM262100 27010KT P6SM SCT060
     FM270200 11005KT P6SM SCT060=



000
FTUS42 KTBW 260541
TAFTPA
TAF
KTPA 260541Z 2606/2706 12006KT P6SM BKN050
     FM261600 16006KT P6SM SCT060 SCT150
     FM261900 24006KT P6SM SCT050 SCT150
     FM262300 VRB05KT P6SM SCT060
     FM270300 09005KT P6SM SCT050 SCT250=



000
FTUS42 KTBW 260541
TAFFMY
TAF
KFMY 260541Z 2606/2706 10005KT P6SM SCT025 BKN035
     FM261300 10005KT P6SM FEW060 FEW150
     FM262000 19007KT P6SM SCT050
     FM270200 15004KT P6SM BKN050=



000
FTUS42 KTBW 260541
TAFPIE
TAF
KPIE 260541Z 2606/2706 12008KT P6SM SCT050 BKN100
     FM261300 12007KT P6SM FEW050 SCT150
     FM261900 30009KT P6SM FEW050 SCT200
     FM270100 VRB05KT P6SM SCT060
     FM270400 10005KT P6SM FEW045 SCT100=



000
FTUS42 KTBW 260541
TAFRSW
TAF
KRSW 260541Z 2606/2706 10004KT P6SM BKN035
     FM261300 10005KT P6SM FEW060 FEW150
     FM262000 19007KT P6SM SCT050
     FM270200 15004KT P6SM BKN050=



000
FTUS42 KTBW 260301 AAA
TAFTPA
TAF AMD
KTPA 260301Z 2603/2624 11005KT P6SM SCT040 BKN050
     FM260800 13004KT P6SM SCT035 BKN150
     FM261400 15006KT P6SM FEW040 SCT150
     FM261800 24007KT P6SM FEW040 BKN060=



000
FTUS42 KTBW 260301 AAA
TAFTPA
TAF AMD
KTPA 260301Z 2603/2624 11005KT P6SM SCT040 BKN050
     FM260800 13004KT P6SM SCT035 BKN150
     FM261400 15006KT P6SM FEW040 SCT150
     FM261800 24007KT P6SM FEW040 BKN060=



000
FTUS42 KTBW 260101 AAB
TAFRSW
TAF AMD
KRSW 260101Z 2601/2624 07007KT P6SM VCTS BKN040CB BKN100
     FM260200 09005KT P6SM BKN040 BKN100
     FM261400 14008KT P6SM SCT050 SCT150=



000
FTUS42 KTBW 260101 AAB
TAFRSW
TAF AMD
KRSW 260101Z 2601/2624 07007KT P6SM VCTS BKN040CB BKN100
     FM260200 09005KT P6SM BKN040 BKN100
     FM261400 14008KT P6SM SCT050 SCT150=



000
FTUS42 KTBW 260021 AAA
TAFRSW
TAF AMD
KRSW 260021Z 2600/2624 07007KT P6SM VCTS BKN040CB BKN100
      TEMPO 2600/2602 1SM TSRA BKN025CB
     FM260200 09005KT P6SM BKN040 BKN100
     FM261400 14008KT P6SM SCT050 SCT150=



000
FTUS42 KTBW 260021 AAA
TAFRSW
TAF AMD
KRSW 260021Z 2600/2624 07007KT P6SM VCTS BKN040CB BKN100
      TEMPO 2600/2602 1SM TSRA BKN025CB
     FM260200 09005KT P6SM BKN040 BKN100
     FM261400 14008KT P6SM SCT050 SCT150=



    US Dept of Commerce
    National Oceanic and Atmospheric Administration
    National Weather Service
    1325 East West Highway
    Silver Spring, MD 20910
    Page Author: NWS Internet Services Team
Disclaimer
Information Quality
Credits
Glossary
Privacy Policy
Freedom of Information Act (FOIA)
About Us
Career Opportunities